sensor_id;sensor_type;location;lat;lon;timestamp;temperature;humidity
3940;DHT22;1984;48.312;9.244;2023-03-11T00:01:23;1.50;99.90
3940;DHT22;1984;48.312;9.244;2023-03-11T00:03:49;1.50;99.90
3940;DHT22;1984;48.312;9.244;2023-03-11T00:06:15;1.50;99.90
3940;DHT22;1984;48.312;9.244;2023-03-11T00:08:41;1.40;99.90
3940;DHT22;1984;48.312;9.244;2023-03-11T00:11:06;1.40;99.90
3940;DHT22;1984;48.312;9.244;2023-03-11T00:13:32;1.30;99.90
3940;DHT22;1984;48.312;9.244;2023-03-11T00:15:59;1.30;99.90
3940;DHT22;1984;48.312;9.244;2023-03-11T00:18:27;1.30;99.90
3940;DHT22;1984;48.312;9.244;2023-03-11T00:20:55;1.20;99.90
3940;DHT22;1984;48.312;9.244;2023-03-11T00:23:21;1.20;99.90
3940;DHT22;1984;48.312;9.244;2023-03-11T00:25:47;1.30;99.90
3940;DHT22;1984;48.312;9.244;2023-03-11T00:28:14;1.30;99.90
3940;DHT22;1984;48.312;9.244;2023-03-11T00:30:41;1.20;99.90
3940;DHT22;1984;48.312;9.244;2023-03-11T00:33:07;1.20;99.90
3940;DHT22;1984;48.312;9.244;2023-03-11T00:35:34;1.20;99.90
3940;DHT22;1984;48.312;9.244;2023-03-11T00:38:05;1.20;99.90
3940;DHT22;1984;48.312;9.244;2023-03-11T00:40:33;1.20;99.90
3940;DHT22;1984;48.312;9.244;2023-03-11T00:42:59;1.20;99.90
3940;DHT22;1984;48.312;9.244;2023-03-11T00:45:26;1.20;99.90
3940;DHT22;1984;48.312;9.244;2023-03-11T00:47:52;1.20;99.90
3940;DHT22;1984;48.312;9.244;2023-03-11T00:50:21;1.20;99.90
3940;DHT22;1984;48.312;9.244;2023-03-11T00:52:48;1.20;99.90
3940;DHT22;1984;48.312;9.244;2023-03-11T00:55:16;1.20;99.90
3940;DHT22;1984;48.312;9.244;2023-03-11T00:57:42;1.10;99.90
3940;DHT22;1984;48.312;9.244;2023-03-11T01:00:12;1.10;99.90
3940;DHT22;1984;48.312;9.244;2023-03-11T01:02:37;1.00;99.90
3940;DHT22;1984;48.312;9.244;2023-03-11T01:05:04;1.00;99.90
3940;DHT22;1984;48.312;9.244;2023-03-11T01:07:30;0.90;99.90
3940;DHT22;1984;48.312;9.244;2023-03-11T01:09:58;0.90;99.90
3940;DHT22;1984;48.312;9.244;2023-03-11T01:12:23;0.90;99.90
3940;DHT22;1984;48.312;9.244;2023-03-11T01:14:49;1.00;99.90
3940;DHT22;1984;48.312;9.244;2023-03-11T01:17:15;0.90;99.90
3940;DHT22;1984;48.312;9.244;2023-03-11T01:19:40;0.90;99.90
3940;DHT22;1984;48.312;9.244;2023-03-11T01:22:06;0.90;99.90
3940;DHT22;1984;48.312;9.244;2023-03-11T01:24:31;0.90;99.90
3940;DHT22;1984;48.312;9.244;2023-03-11T01:26:57;1.00;99.90
3940;DHT22;1984;48.312;9.244;2023-03-11T01:29:22;1.10;99.90
3940;DHT22;1984;48.312;9.244;2023-03-11T01:31:48;1.10;99.90
3940;DHT22;1984;48.312;9.244;2023-03-11T01:34:13;1.10;99.90
3940;DHT22;1984;48.312;9.244;2023-03-11T01:36:39;1.10;99.90
3940;DHT22;1984;48.312;9.244;2023-03-11T01:39:04;1.10;99.90
3940;DHT22;1984;48.312;9.244;2023-03-11T01:41:30;1.10;99.90
3940;DHT22;1984;48.312;9.244;2023-03-11T01:43:55;1.10;99.90
3940;DHT22;1984;48.312;9.244;2023-03-11T01:46:26;1.10;99.90
3940;DHT22;1984;48.312;9.244;2023-03-11T01:49:03;1.10;99.90
3940;DHT22;1984;48.312;9.244;2023-03-11T01:53:58;1.00;99.90
3940;DHT22;1984;48.312;9.244;2023-03-11T01:56:25;1.00;99.90
3940;DHT22;1984;48.312;9.244;2023-03-11T01:58:52;1.00;99.90
3940;DHT22;1984;48.312;9.244;2023-03-11T02:01:19;1.00;99.90
3940;DHT22;1984;48.312;9.244;2023-03-11T02:03:45;1.00;99.90
3940;DHT22;1984;48.312;9.244;2023-03-11T02:06:17;1.00;99.90
3940;DHT22;1984;48.312;9.244;2023-03-11T02:08:43;1.00;99.90
3940;DHT22;1984;48.312;9.244;2023-03-11T02:11:14;0.90;99.90
3940;DHT22;1984;48.312;9.244;2023-03-11T02:13:42;0.90;99.90
3940;DHT22;1984;48.312;9.244;2023-03-11T02:16:09;0.80;99.90
3940;DHT22;1984;48.312;9.244;2023-03-11T02:18:36;0.80;99.90
3940;DHT22;1984;48.312;9.244;2023-03-11T02:21:27;0.80;99.90
3940;DHT22;1984;48.312;9.244;2023-03-11T02:24:04;0.80;99.90
3940;DHT22;1984;48.312;9.244;2023-03-11T02:29:12;0.70;99.90
3940;DHT22;1984;48.312;9.244;2023-03-11T02:31:40;0.70;99.90
3940;DHT22;1984;48.312;9.244;2023-03-11T02:34:12;0.70;99.90
3940;DHT22;1984;48.312;9.244;2023-03-11T02:36:41;0.70;99.90
3940;DHT22;1984;48.312;9.244;2023-03-11T02:39:07;0.70;99.90
3940;DHT22;1984;48.312;9.244;2023-03-11T02:41:36;0.70;99.90
3940;DHT22;1984;48.312;9.244;2023-03-11T02:44:04;0.70;99.90
3940;DHT22;1984;48.312;9.244;2023-03-11T02:46:31;0.60;99.90
3940;DHT22;1984;48.312;9.244;2023-03-11T02:48:56;0.60;99.90
3940;DHT22;1984;48.312;9.244;2023-03-11T02:51:23;0.60;99.90
3940;DHT22;1984;48.312;9.244;2023-03-11T02:53:52;0.60;99.90
3940;DHT22;1984;48.312;9.244;2023-03-11T02:56:19;0.60;99.90
3940;DHT22;1984;48.312;9.244;2023-03-11T02:58:44;0.60;99.90
3940;DHT22;1984;48.312;9.244;2023-03-11T03:01:10;0.60;99.90
3940;DHT22;1984;48.312;9.244;2023-03-11T03:03:36;0.60;99.90
3940;DHT22;1984;48.312;9.244;2023-03-11T03:06:01;0.70;99.90
3940;DHT22;1984;48.312;9.244;2023-03-11T03:08:27;0.70;99.90
3940;DHT22;1984;48.312;9.244;2023-03-11T03:10:52;0.70;99.90
3940;DHT22;1984;48.312;9.244;2023-03-11T03:13:18;0.60;99.90
3940;DHT22;1984;48.312;9.244;2023-03-11T03:15:44;0.60;99.90
3940;DHT22;1984;48.312;9.244;2023-03-11T03:18:09;0.50;99.90
3940;DHT22;1984;48.312;9.244;2023-03-11T03:20:35;0.50;99.90
3940;DHT22;1984;48.312;9.244;2023-03-11T03:23:01;0.40;99.90
3940;DHT22;1984;48.312;9.244;2023-03-11T03:25:27;0.40;99.90
3940;DHT22;1984;48.312;9.244;2023-03-11T03:27:52;0.30;99.90
3940;DHT22;1984;48.312;9.244;2023-03-11T03:30:18;0.30;99.90
3940;DHT22;1984;48.312;9.244;2023-03-11T03:32:44;0.20;99.90
3940;DHT22;1984;48.312;9.244;2023-03-11T03:35:10;0.20;99.90
3940;DHT22;1984;48.312;9.244;2023-03-11T03:37:36;0.20;99.90
3940;DHT22;1984;48.312;9.244;2023-03-11T03:40:03;0.20;99.90
3940;DHT22;1984;48.312;9.244;2023-03-11T03:42:35;0.20;99.90
3940;DHT22;1984;48.312;9.244;2023-03-11T03:45:03;0.20;99.90
3940;DHT22;1984;48.312;9.244;2023-03-11T03:47:30;0.20;99.90
3940;DHT22;1984;48.312;9.244;2023-03-11T03:49:55;0.30;99.90
3940;DHT22;1984;48.312;9.244;2023-03-11T03:52:21;0.30;99.90
3940;DHT22;1984;48.312;9.244;2023-03-11T03:54:46;0.30;99.90
3940;DHT22;1984;48.312;9.244;2023-03-11T03:57:12;0.30;99.90
3940;DHT22;1984;48.312;9.244;2023-03-11T03:59:37;0.30;99.90
3940;DHT22;1984;48.312;9.244;2023-03-11T04:02:03;0.20;99.90
3940;DHT22;1984;48.312;9.244;2023-03-11T04:04:29;0.20;99.90
3940;DHT22;1984;48.312;9.244;2023-03-11T04:06:55;0.20;99.90
3940;DHT22;1984;48.312;9.244;2023-03-11T04:09:20;0.30;99.90
3940;DHT22;1984;48.312;9.244;2023-03-11T04:11:46;0.30;99.90
3940;DHT22;1984;48.312;9.244;2023-03-11T04:14:12;0.30;99.90
3940;DHT22;1984;48.312;9.244;2023-03-11T04:16:37;0.30;99.90
3940;DHT22;1984;48.312;9.244;2023-03-11T04:19:03;0.30;99.90
3940;DHT22;1984;48.312;9.244;2023-03-11T04:21:31;0.30;99.90
3940;DHT22;1984;48.312;9.244;2023-03-11T04:23:57;0.20;99.90
3940;DHT22;1984;48.312;9.244;2023-03-11T04:26:22;0.20;99.90
3940;DHT22;1984;48.312;9.244;2023-03-11T04:28:48;0.10;99.90
3940;DHT22;1984;48.312;9.244;2023-03-11T04:31:13;0.00;99.90
3940;DHT22;1984;48.312;9.244;2023-03-11T04:33:39;-0.10;99.90
3940;DHT22;1984;48.312;9.244;2023-03-11T04:36:06;-0.10;99.90
3940;DHT22;1984;48.312;9.244;2023-03-11T04:38:31;-0.10;99.90
3940;DHT22;1984;48.312;9.244;2023-03-11T04:41:01;-0.10;99.90
3940;DHT22;1984;48.312;9.244;2023-03-11T04:43:26;-0.10;99.90
3940;DHT22;1984;48.312;9.244;2023-03-11T04:45:52;-0.10;99.90
3940;DHT22;1984;48.312;9.244;2023-03-11T04:48:17;-0.10;99.90
3940;DHT22;1984;48.312;9.244;2023-03-11T04:50:43;-0.20;99.90
3940;DHT22;1984;48.312;9.244;2023-03-11T04:53:09;-0.20;99.90
3940;DHT22;1984;48.312;9.244;2023-03-11T04:55:34;-0.10;99.90
3940;DHT22;1984;48.312;9.244;2023-03-11T04:58:00;-0.10;99.90
3940;DHT22;1984;48.312;9.244;2023-03-11T05:00:25;-0.10;99.90
3940;DHT22;1984;48.312;9.244;2023-03-11T05:02:51;-0.10;99.90
3940;DHT22;1984;48.312;9.244;2023-03-11T05:05:17;-0.10;99.90
3940;DHT22;1984;48.312;9.244;2023-03-11T05:07:46;-0.10;99.90
3940;DHT22;1984;48.312;9.244;2023-03-11T05:10:12;-0.20;99.90
3940;DHT22;1984;48.312;9.244;2023-03-11T05:12:38;-0.20;99.90
3940;DHT22;1984;48.312;9.244;2023-03-11T05:15:04;-0.20;99.90
3940;DHT22;1984;48.312;9.244;2023-03-11T05:17:30;-0.20;99.90
3940;DHT22;1984;48.312;9.244;2023-03-11T05:19:55;-0.20;99.90
3940;DHT22;1984;48.312;9.244;2023-03-11T05:22:22;-0.20;99.90
3940;DHT22;1984;48.312;9.244;2023-03-11T05:24:48;-0.10;99.90
3940;DHT22;1984;48.312;9.244;2023-03-11T05:27:14;-0.20;99.90
3940;DHT22;1984;48.312;9.244;2023-03-11T05:29:44;-0.10;99.90
3940;DHT22;1984;48.312;9.244;2023-03-11T05:32:10;-0.10;99.90
3940;DHT22;1984;48.312;9.244;2023-03-11T05:34:36;-0.10;99.90
3940;DHT22;1984;48.312;9.244;2023-03-11T05:37:02;-0.10;99.90
3940;DHT22;1984;48.312;9.244;2023-03-11T05:39:28;-0.10;99.90
3940;DHT22;1984;48.312;9.244;2023-03-11T05:41:53;-0.10;99.90
3940;DHT22;1984;48.312;9.244;2023-03-11T05:44:21;-0.10;99.90
3940;DHT22;1984;48.312;9.244;2023-03-11T05:46:46;-0.10;99.90
3940;DHT22;1984;48.312;9.244;2023-03-11T05:49:12;-0.10;99.90
3940;DHT22;1984;48.312;9.244;2023-03-11T05:51:37;-0.10;99.90
3940;DHT22;1984;48.312;9.244;2023-03-11T05:54:03;-0.10;99.90
3940;DHT22;1984;48.312;9.244;2023-03-11T05:56:28;0.00;99.90
3940;DHT22;1984;48.312;9.244;2023-03-11T05:58:56;0.00;99.90
3940;DHT22;1984;48.312;9.244;2023-03-11T06:01:21;0.00;99.90
3940;DHT22;1984;48.312;9.244;2023-03-11T06:03:47;-0.10;99.90
3940;DHT22;1984;48.312;9.244;2023-03-11T06:06:13;-0.10;99.90
3940;DHT22;1984;48.312;9.244;2023-03-11T06:08:39;-0.10;99.90
3940;DHT22;1984;48.312;9.244;2023-03-11T06:11:10;-0.10;99.90
3940;DHT22;1984;48.312;9.244;2023-03-11T06:13:36;-0.10;99.90
3940;DHT22;1984;48.312;9.244;2023-03-11T06:16:02;-0.10;99.90
3940;DHT22;1984;48.312;9.244;2023-03-11T06:18:28;0.00;99.90
3940;DHT22;1984;48.312;9.244;2023-03-11T06:20:57;0.00;99.90
3940;DHT22;1984;48.312;9.244;2023-03-11T06:23:23;0.00;99.90
3940;DHT22;1984;48.312;9.244;2023-03-11T06:26:00;0.00;99.90
3940;DHT22;1984;48.312;9.244;2023-03-11T06:28:26;0.00;99.90
3940;DHT22;1984;48.312;9.244;2023-03-11T06:30:52;0.00;99.90
3940;DHT22;1984;48.312;9.244;2023-03-11T06:33:18;0.10;99.90
3940;DHT22;1984;48.312;9.244;2023-03-11T06:35:44;0.00;99.90
3940;DHT22;1984;48.312;9.244;2023-03-11T06:38:19;0.00;99.90
3940;DHT22;1984;48.312;9.244;2023-03-11T06:40:45;0.00;99.90
3940;DHT22;1984;48.312;9.244;2023-03-11T06:43:10;0.00;99.90
3940;DHT22;1984;48.312;9.244;2023-03-11T06:45:36;-0.10;99.90
3940;DHT22;1984;48.312;9.244;2023-03-11T06:48:01;0.10;99.90
3940;DHT22;1984;48.312;9.244;2023-03-11T06:50:27;0.10;99.90
3940;DHT22;1984;48.312;9.244;2023-03-11T06:52:53;0.20;99.90
3940;DHT22;1984;48.312;9.244;2023-03-11T06:55:18;0.20;99.90
3940;DHT22;1984;48.312;9.244;2023-03-11T06:57:45;0.30;99.90
3940;DHT22;1984;48.312;9.244;2023-03-11T07:00:11;0.40;99.90
3940;DHT22;1984;48.312;9.244;2023-03-11T07:02:37;0.60;99.90
3940;DHT22;1984;48.312;9.244;2023-03-11T07:05:03;0.60;99.90
3940;DHT22;1984;48.312;9.244;2023-03-11T07:07:28;0.60;99.90
3940;DHT22;1984;48.312;9.244;2023-03-11T07:09:55;0.70;99.90
3940;DHT22;1984;48.312;9.244;2023-03-11T07:12:22;0.90;99.90
3940;DHT22;1984;48.312;9.244;2023-03-11T07:14:53;0.90;99.90
3940;DHT22;1984;48.312;9.244;2023-03-11T07:17:19;0.90;99.90
3940;DHT22;1984;48.312;9.244;2023-03-11T07:19:45;1.00;99.90
3940;DHT22;1984;48.312;9.244;2023-03-11T07:22:10;1.10;99.90
3940;DHT22;1984;48.312;9.244;2023-03-11T07:24:36;1.20;99.90
3940;DHT22;1984;48.312;9.244;2023-03-11T07:27:01;1.20;99.90
3940;DHT22;1984;48.312;9.244;2023-03-11T07:29:27;1.10;99.90
3940;DHT22;1984;48.312;9.244;2023-03-11T07:31:52;1.00;99.90
3940;DHT22;1984;48.312;9.244;2023-03-11T07:34:18;1.00;99.90
3940;DHT22;1984;48.312;9.244;2023-03-11T07:36:43;1.00;99.90
3940;DHT22;1984;48.312;9.244;2023-03-11T07:39:15;0.90;99.90
3940;DHT22;1984;48.312;9.244;2023-03-11T07:41:41;0.90;99.90
3940;DHT22;1984;48.312;9.244;2023-03-11T07:44:06;1.00;99.90
3940;DHT22;1984;48.312;9.244;2023-03-11T07:46:32;1.20;99.90
3940;DHT22;1984;48.312;9.244;2023-03-11T07:48:58;1.50;99.90
3940;DHT22;1984;48.312;9.244;2023-03-11T07:51:27;1.70;99.90
3940;DHT22;1984;48.312;9.244;2023-03-11T07:53:55;2.00;99.90
3940;DHT22;1984;48.312;9.244;2023-03-11T07:56:21;2.20;99.90
3940;DHT22;1984;48.312;9.244;2023-03-11T07:58:48;2.40;99.90
3940;DHT22;1984;48.312;9.244;2023-03-11T08:01:19;2.50;99.90
3940;DHT22;1984;48.312;9.244;2023-03-11T08:03:47;2.50;99.90
3940;DHT22;1984;48.312;9.244;2023-03-11T08:06:19;2.60;99.90
3940;DHT22;1984;48.312;9.244;2023-03-11T08:08:45;2.60;99.90
3940;DHT22;1984;48.312;9.244;2023-03-11T08:11:12;2.50;99.90
3940;DHT22;1984;48.312;9.244;2023-03-11T08:13:42;2.60;99.90
3940;DHT22;1984;48.312;9.244;2023-03-11T08:16:09;2.60;99.90
3940;DHT22;1984;48.312;9.244;2023-03-11T08:18:35;2.60;99.90
3940;DHT22;1984;48.312;9.244;2023-03-11T08:21:05;2.70;99.90
3940;DHT22;1984;48.312;9.244;2023-03-11T08:23:30;3.60;99.90
3940;DHT22;1984;48.312;9.244;2023-03-11T08:25:56;5.00;99.90
3940;DHT22;1984;48.312;9.244;2023-03-11T08:28:21;6.70;99.90
3940;DHT22;1984;48.312;9.244;2023-03-11T08:30:47;7.70;99.90
3940;DHT22;1984;48.312;9.244;2023-03-11T08:33:12;8.40;99.90
3940;DHT22;1984;48.312;9.244;2023-03-11T08:35:38;8.40;99.90
3940;DHT22;1984;48.312;9.244;2023-03-11T08:38:04;9.50;99.90
3940;DHT22;1984;48.312;9.244;2023-03-11T08:40:29;9.80;98.00
3940;DHT22;1984;48.312;9.244;2023-03-11T08:42:55;9.00;97.10
3940;DHT22;1984;48.312;9.244;2023-03-11T08:45:21;8.20;97.70
3940;DHT22;1984;48.312;9.244;2023-03-11T08:47:46;7.20;97.60
3940;DHT22;1984;48.312;9.244;2023-03-11T08:50:15;6.60;99.10
3940;DHT22;1984;48.312;9.244;2023-03-11T08:52:41;6.50;99.90
3940;DHT22;1984;48.312;9.244;2023-03-11T08:55:08;8.30;99.90
3940;DHT22;1984;48.312;9.244;2023-03-11T08:57:36;10.10;97.30
3940;DHT22;1984;48.312;9.244;2023-03-11T09:00:04;10.00;95.40
3940;DHT22;1984;48.312;9.244;2023-03-11T09:02:29;9.40;95.10
3940;DHT22;1984;48.312;9.244;2023-03-11T09:04:55;8.80;95.80
3940;DHT22;1984;48.312;9.244;2023-03-11T09:07:20;8.20;95.30
3940;DHT22;1984;48.312;9.244;2023-03-11T09:09:46;7.90;95.70
3940;DHT22;1984;48.312;9.244;2023-03-11T09:12:11;8.20;96.80
3940;DHT22;1984;48.312;9.244;2023-03-11T09:14:39;9.50;95.40
3940;DHT22;1984;48.312;9.244;2023-03-11T09:17:05;11.40;93.90
3940;DHT22;1984;48.312;9.244;2023-03-11T09:19:31;12.90;90.00
3940;DHT22;1984;48.312;9.244;2023-03-11T09:21:59;13.70;88.20
3940;DHT22;1984;48.312;9.244;2023-03-11T09:24:25;14.50;80.80
3940;DHT22;1984;48.312;9.244;2023-03-11T09:26:50;14.80;77.60
3940;DHT22;1984;48.312;9.244;2023-03-11T09:29:16;15.90;74.40
3940;DHT22;1984;48.312;9.244;2023-03-11T09:31:41;16.40;72.70
3940;DHT22;1984;48.312;9.244;2023-03-11T09:34:07;16.80;71.80
3940;DHT22;1984;48.312;9.244;2023-03-11T09:36:32;17.20;68.30
3940;DHT22;1984;48.312;9.244;2023-03-11T09:38:59;16.90;68.00
3940;DHT22;1984;48.312;9.244;2023-03-11T09:42:01;16.90;66.00
3940;DHT22;1984;48.312;9.244;2023-03-11T09:44:44;15.20;65.40
3940;DHT22;1984;48.312;9.244;2023-03-11T09:47:26;12.60;70.50
3940;DHT22;1984;48.312;9.244;2023-03-11T09:50:19;10.70;75.40
3940;DHT22;1984;48.312;9.244;2023-03-11T09:53:09;9.20;79.90
3940;DHT22;1984;48.312;9.244;2023-03-11T09:55:57;8.30;80.80
3940;DHT22;1984;48.312;9.244;2023-03-11T10:01:03;10.20;83.00
3940;DHT22;1984;48.312;9.244;2023-03-11T10:03:34;11.60;77.30
3940;DHT22;1984;48.312;9.244;2023-03-11T10:06:21;13.10;75.60
3940;DHT22;1984;48.312;9.244;2023-03-11T10:11:40;15.20;68.20
3940;DHT22;1984;48.312;9.244;2023-03-11T10:17:04;16.70;64.70
3940;DHT22;1984;48.312;9.244;2023-03-11T10:19:37;15.60;67.30
3940;DHT22;1984;48.312;9.244;2023-03-11T10:22:11;15.00;65.10
3940;DHT22;1984;48.312;9.244;2023-03-11T10:27:57;14.20;64.30
3940;DHT22;1984;48.312;9.244;2023-03-11T10:30:42;15.10;65.20
3940;DHT22;1984;48.312;9.244;2023-03-11T10:35:45;14.90;61.30
3940;DHT22;1984;48.312;9.244;2023-03-11T10:38:33;14.10;63.80
3940;DHT22;1984;48.312;9.244;2023-03-11T10:41:04;14.80;63.90
3940;DHT22;1984;48.312;9.244;2023-03-11T10:43:34;15.30;64.10
3940;DHT22;1984;48.312;9.244;2023-03-11T10:46:04;16.00;61.80
3940;DHT22;1984;48.312;9.244;2023-03-11T10:48:31;16.20;63.30
3940;DHT22;1984;48.312;9.244;2023-03-11T10:51:14;16.50;61.80
3940;DHT22;1984;48.312;9.244;2023-03-11T10:53:51;16.10;60.10
3940;DHT22;1984;48.312;9.244;2023-03-11T10:56:27;16.70;64.00
3940;DHT22;1984;48.312;9.244;2023-03-11T10:58:53;16.90;61.20
3940;DHT22;1984;48.312;9.244;2023-03-11T11:01:19;16.40;63.40
3940;DHT22;1984;48.312;9.244;2023-03-11T11:03:51;16.00;63.20
3940;DHT22;1984;48.312;9.244;2023-03-11T11:06:34;15.50;62.60
3940;DHT22;1984;48.312;9.244;2023-03-11T11:09:12;14.90;64.80
3940;DHT22;1984;48.312;9.244;2023-03-11T11:11:39;14.70;62.20
3940;DHT22;1984;48.312;9.244;2023-03-11T11:14:05;14.00;61.70
3940;DHT22;1984;48.312;9.244;2023-03-11T11:16:32;12.80;66.60
3940;DHT22;1984;48.312;9.244;2023-03-11T11:19:02;11.90;67.90
3940;DHT22;1984;48.312;9.244;2023-03-11T11:24:16;10.80;71.40
3940;DHT22;1984;48.312;9.244;2023-03-11T11:29:36;11.10;71.10
3940;DHT22;1984;48.312;9.244;2023-03-11T11:34:39;10.70;69.10
3940;DHT22;1984;48.312;9.244;2023-03-11T11:37:05;10.10;72.40
3940;DHT22;1984;48.312;9.244;2023-03-11T11:39:47;9.90;74.80
3940;DHT22;1984;48.312;9.244;2023-03-11T11:42:17;10.00;73.70
3940;DHT22;1984;48.312;9.244;2023-03-11T11:44:47;9.50;73.90
3940;DHT22;1984;48.312;9.244;2023-03-11T11:47:22;9.60;75.20
3940;DHT22;1984;48.312;9.244;2023-03-11T11:49:55;9.10;74.20
3940;DHT22;1984;48.312;9.244;2023-03-11T11:52:26;9.10;79.00
3940;DHT22;1984;48.312;9.244;2023-03-11T11:55:08;8.80;78.60
3940;DHT22;1984;48.312;9.244;2023-03-11T11:57:37;8.50;78.20
3940;DHT22;1984;48.312;9.244;2023-03-11T12:00:05;8.30;81.50
3940;DHT22;1984;48.312;9.244;2023-03-11T12:02:48;8.00;78.70
3940;DHT22;1984;48.312;9.244;2023-03-11T12:05:34;7.90;81.80
3940;DHT22;1984;48.312;9.244;2023-03-11T12:11:11;7.80;81.80
3940;DHT22;1984;48.312;9.244;2023-03-11T12:13:50;7.80;81.80
3940;DHT22;1984;48.312;9.244;2023-03-11T12:27:33;7.60;80.20
3940;DHT22;1984;48.312;9.244;2023-03-11T12:30:04;7.10;79.40
3940;DHT22;1984;48.312;9.244;2023-03-11T12:32:40;6.60;81.70
3940;DHT22;1984;48.312;9.244;2023-03-11T12:35:26;6.40;85.70
3940;DHT22;1984;48.312;9.244;2023-03-11T12:38:16;6.50;88.10
3940;DHT22;1984;48.312;9.244;2023-03-11T12:46:11;6.80;85.80
3940;DHT22;1984;48.312;9.244;2023-03-11T12:48:47;7.00;87.10
3940;DHT22;1984;48.312;9.244;2023-03-11T12:53:53;7.30;87.00
3940;DHT22;1984;48.312;9.244;2023-03-11T13:01:52;7.10;86.70
3940;DHT22;1984;48.312;9.244;2023-03-11T13:07:10;7.10;84.30
3940;DHT22;1984;48.312;9.244;2023-03-11T13:09:40;7.10;82.80
3940;DHT22;1984;48.312;9.244;2023-03-11T13:12:41;7.10;83.20
3940;DHT22;1984;48.312;9.244;2023-03-11T13:28:18;7.00;83.40
3940;DHT22;1984;48.312;9.244;2023-03-11T13:36:40;7.10;81.80
3940;DHT22;1984;48.312;9.244;2023-03-11T13:39:35;7.20;83.10
3940;DHT22;1984;48.312;9.244;2023-03-11T13:42:50;7.20;84.10
3940;DHT22;1984;48.312;9.244;2023-03-11T13:44:57;7.20;80.20
3940;DHT22;1984;48.312;9.244;2023-03-11T13:47:24;7.20;81.70
3940;DHT22;1984;48.312;9.244;2023-03-11T13:50:09;7.20;80.40
3940;DHT22;1984;48.312;9.244;2023-03-11T13:52:45;7.10;81.80
3940;DHT22;1984;48.312;9.244;2023-03-11T13:55:20;7.00;79.90
3940;DHT22;1984;48.312;9.244;2023-03-11T13:57:54;6.90;80.80
3940;DHT22;1984;48.312;9.244;2023-03-11T14:00:23;7.00;83.20
3940;DHT22;1984;48.312;9.244;2023-03-11T14:02:52;7.00;84.10
3940;DHT22;1984;48.312;9.244;2023-03-11T14:05:25;7.10;83.70
3940;DHT22;1984;48.312;9.244;2023-03-11T14:07:51;7.10;81.70
3940;DHT22;1984;48.312;9.244;2023-03-11T14:10:24;7.10;83.00
3940;DHT22;1984;48.312;9.244;2023-03-11T14:12:50;7.20;83.50
3940;DHT22;1984;48.312;9.244;2023-03-11T14:15:23;7.20;81.60
3940;DHT22;1984;48.312;9.244;2023-03-11T14:17:52;7.20;80.30
3940;DHT22;1984;48.312;9.244;2023-03-11T14:20:22;7.30;81.60
3940;DHT22;1984;48.312;9.244;2023-03-11T14:22:51;7.30;81.30
3940;DHT22;1984;48.312;9.244;2023-03-11T14:25:26;7.30;80.80
3940;DHT22;1984;48.312;9.244;2023-03-11T14:28:00;7.30;80.50
3940;DHT22;1984;48.312;9.244;2023-03-11T14:30:29;7.30;80.40
3940;DHT22;1984;48.312;9.244;2023-03-11T14:33:13;7.30;80.50
3940;DHT22;1984;48.312;9.244;2023-03-11T14:35:40;7.20;80.70
3940;DHT22;1984;48.312;9.244;2023-03-11T14:38:20;7.20;81.70
3940;DHT22;1984;48.312;9.244;2023-03-11T14:40:53;7.20;83.70
3940;DHT22;1984;48.312;9.244;2023-03-11T14:43:20;7.30;80.30
3940;DHT22;1984;48.312;9.244;2023-03-11T14:45:47;7.20;79.80
3940;DHT22;1984;48.312;9.244;2023-03-11T14:48:25;7.20;78.80
3940;DHT22;1984;48.312;9.244;2023-03-11T14:50:55;7.20;78.60
3940;DHT22;1984;48.312;9.244;2023-03-11T14:53:41;7.10;78.70
3940;DHT22;1984;48.312;9.244;2023-03-11T14:56:20;7.10;80.40
3940;DHT22;1984;48.312;9.244;2023-03-11T14:58:56;7.00;79.80
3940;DHT22;1984;48.312;9.244;2023-03-11T15:01:28;7.00;78.80
3940;DHT22;1984;48.312;9.244;2023-03-11T15:04:05;7.00;80.10
3940;DHT22;1984;48.312;9.244;2023-03-11T15:06:33;7.00;76.80
3940;DHT22;1984;48.312;9.244;2023-03-11T15:09:13;6.90;79.40
3940;DHT22;1984;48.312;9.244;2023-03-11T15:11:45;6.90;81.00
3940;DHT22;1984;48.312;9.244;2023-03-11T15:14:23;6.90;81.90
3940;DHT22;1984;48.312;9.244;2023-03-11T15:16:50;6.80;80.00
3940;DHT22;1984;48.312;9.244;2023-03-11T15:21:52;6.70;80.40
3940;DHT22;1984;48.312;9.244;2023-03-11T15:24:23;6.60;79.30
3940;DHT22;1984;48.312;9.244;2023-03-11T15:26:54;6.50;80.80
3940;DHT22;1984;48.312;9.244;2023-03-11T15:29:20;6.40;82.00
3940;DHT22;1984;48.312;9.244;2023-03-11T15:31:46;6.30;83.00
3940;DHT22;1984;48.312;9.244;2023-03-11T15:39:20;6.10;83.90
3940;DHT22;1984;48.312;9.244;2023-03-11T15:44:33;6.00;84.50
3940;DHT22;1984;48.312;9.244;2023-03-11T15:47:00;6.00;85.00
3940;DHT22;1984;48.312;9.244;2023-03-11T15:49:29;6.00;85.20
3940;DHT22;1984;48.312;9.244;2023-03-11T15:51:59;5.90;85.00
3940;DHT22;1984;48.312;9.244;2023-03-11T15:54:25;5.80;84.20
3940;DHT22;1984;48.312;9.244;2023-03-11T15:56:51;5.80;85.10
3940;DHT22;1984;48.312;9.244;2023-03-11T15:59:19;5.70;86.20
3940;DHT22;1984;48.312;9.244;2023-03-11T16:01:45;5.60;86.70
3940;DHT22;1984;48.312;9.244;2023-03-11T16:04:13;5.60;86.90
3940;DHT22;1984;48.312;9.244;2023-03-11T16:06:40;5.60;86.90
3940;DHT22;1984;48.312;9.244;2023-03-11T16:09:05;5.50;86.30
3940;DHT22;1984;48.312;9.244;2023-03-11T16:11:31;5.40;87.30
3940;DHT22;1984;48.312;9.244;2023-03-11T16:13:58;5.40;88.80
3940;DHT22;1984;48.312;9.244;2023-03-11T16:16:23;5.40;89.10
3940;DHT22;1984;48.312;9.244;2023-03-11T16:18:49;5.40;89.50
3940;DHT22;1984;48.312;9.244;2023-03-11T16:21:17;5.20;89.10
3940;DHT22;1984;48.312;9.244;2023-03-11T16:23:44;5.20;90.00
3940;DHT22;1984;48.312;9.244;2023-03-11T16:26:13;5.20;89.40
3940;DHT22;1984;48.312;9.244;2023-03-11T16:28:38;5.20;89.60
3940;DHT22;1984;48.312;9.244;2023-03-11T16:31:05;5.20;89.60
3940;DHT22;1984;48.312;9.244;2023-03-11T16:33:32;5.10;89.90
3940;DHT22;1984;48.312;9.244;2023-03-11T16:35:58;5.00;89.90
3940;DHT22;1984;48.312;9.244;2023-03-11T16:38:23;5.00;90.10
3940;DHT22;1984;48.312;9.244;2023-03-11T16:41:00;5.00;90.30
3940;DHT22;1984;48.312;9.244;2023-03-11T16:43:27;4.90;89.70
3940;DHT22;1984;48.312;9.244;2023-03-11T16:45:53;4.90;89.60
3940;DHT22;1984;48.312;9.244;2023-03-11T16:48:20;4.90;90.00
3940;DHT22;1984;48.312;9.244;2023-03-11T16:50:45;4.90;90.00
3940;DHT22;1984;48.312;9.244;2023-03-11T16:53:11;4.90;89.80
3940;DHT22;1984;48.312;9.244;2023-03-11T16:55:38;4.90;89.90
3940;DHT22;1984;48.312;9.244;2023-03-11T16:58:03;4.90;89.90
3940;DHT22;1984;48.312;9.244;2023-03-11T17:00:29;4.90;89.90
3940;DHT22;1984;48.312;9.244;2023-03-11T17:02:55;4.80;90.10
3940;DHT22;1984;48.312;9.244;2023-03-11T17:05:20;4.70;89.40
3940;DHT22;1984;48.312;9.244;2023-03-11T17:07:46;4.70;90.00
3940;DHT22;1984;48.312;9.244;2023-03-11T17:10:12;4.70;90.30
3940;DHT22;1984;48.312;9.244;2023-03-11T17:12:37;4.70;90.20
3940;DHT22;1984;48.312;9.244;2023-03-11T17:15:05;4.70;89.70
3940;DHT22;1984;48.312;9.244;2023-03-11T17:17:31;4.70;89.80
3940;DHT22;1984;48.312;9.244;2023-03-11T17:19:56;4.70;90.20
3940;DHT22;1984;48.312;9.244;2023-03-11T17:22:22;4.80;90.00
3940;DHT22;1984;48.312;9.244;2023-03-11T17:24:47;4.70;90.10
3940;DHT22;1984;48.312;9.244;2023-03-11T17:27:13;4.70;90.50
3940;DHT22;1984;48.312;9.244;2023-03-11T17:29:38;4.70;90.80
3940;DHT22;1984;48.312;9.244;2023-03-11T17:32:04;4.70;90.90
3940;DHT22;1984;48.312;9.244;2023-03-11T17:34:31;4.60;90.70
3940;DHT22;1984;48.312;9.244;2023-03-11T17:36:56;4.60;90.70
3940;DHT22;1984;48.312;9.244;2023-03-11T17:39:22;4.50;90.80
3940;DHT22;1984;48.312;9.244;2023-03-11T17:41:47;4.50;91.00
3940;DHT22;1984;48.312;9.244;2023-03-11T17:44:13;4.50;91.20
3940;DHT22;1984;48.312;9.244;2023-03-11T17:46:39;4.50;91.30
3940;DHT22;1984;48.312;9.244;2023-03-11T17:49:06;4.50;91.50
3940;DHT22;1984;48.312;9.244;2023-03-11T17:51:33;4.50;91.60